sensor_id;sensor_type;location;lat;lon;timestamp;P1;durP1;ratioP1;P2;durP2;ratioP2
59830;SDS011;45711;50.108;13.712;2022-07-10T00:01:38;5.15;;;1.75;;
59830;SDS011;45711;50.108;13.712;2022-07-10T00:04:03;9.15;;;2.00;;
59830;SDS011;45711;50.108;13.712;2022-07-10T00:06:32;5.60;;;2.03;;
59830;SDS011;45711;50.108;13.712;2022-07-10T00:08:58;6.47;;;1.80;;
59830;SDS011;45711;50.108;13.712;2022-07-10T00:11:23;10.30;;;1.92;;
59830;SDS011;45711;50.108;13.712;2022-07-10T00:13:50;3.42;;;1.80;;
59830;SDS011;45711;50.108;13.712;2022-07-10T00:16:19;11.35;;;1.90;;
59830;SDS011;45711;50.108;13.712;2022-07-10T00:18:45;14.60;;;2.03;;
59830;SDS011;45711;50.108;13.712;2022-07-10T00:21:11;5.85;;;1.58;;
59830;SDS011;45711;50.108;13.712;2022-07-10T00:23:36;11.55;;;1.75;;
59830;SDS011;45711;50.108;13.712;2022-07-10T00:26:02;9.35;;;1.70;;
59830;SDS011;45711;50.108;13.712;2022-07-10T00:28:28;6.05;;;1.83;;
59830;SDS011;45711;50.108;13.712;2022-07-10T00:30:57;12.95;;;1.95;;
59830;SDS011;45711;50.108;13.712;2022-07-10T00:33:22;6.28;;;1.73;;
59830;SDS011;45711;50.108;13.712;2022-07-10T00:35:48;5.38;;;1.75;;
59830;SDS011;45711;50.108;13.712;2022-07-10T00:38:13;7.40;;;1.80;;
59830;SDS011;45711;50.108;13.712;2022-07-10T00:40:39;5.72;;;1.73;;
59830;SDS011;45711;50.108;13.712;2022-07-10T00:43:07;9.10;;;1.90;;
59830;SDS011;45711;50.108;13.712;2022-07-10T00:45:33;7.45;;;2.22;;
59830;SDS011;45711;50.108;13.712;2022-07-10T00:48:00;5.57;;;1.58;;
59830;SDS011;45711;50.108;13.712;2022-07-10T00:50:26;7.13;;;1.58;;
59830;SDS011;45711;50.108;13.712;2022-07-10T00:52:52;9.93;;;2.22;;
59830;SDS011;45711;50.108;13.712;2022-07-10T00:55:19;3.40;;;1.50;;
59830;SDS011;45711;50.108;13.712;2022-07-10T00:57:47;3.03;;;1.58;;
59830;SDS011;45711;50.108;13.712;2022-07-10T01:00:14;8.15;;;1.40;;
59830;SDS011;45711;50.108;13.712;2022-07-10T01:02:43;8.55;;;1.73;;
59830;SDS011;45711;50.108;13.712;2022-07-10T01:05:15;6.32;;;1.88;;
59830;SDS011;45711;50.108;13.712;2022-07-10T01:07:41;8.15;;;1.92;;
59830;SDS011;45711;50.108;13.712;2022-07-10T01:10:09;9.98;;;2.15;;
59830;SDS011;45711;50.108;13.712;2022-07-10T01:12:35;4.00;;;1.92;;
59830;SDS011;45711;50.108;13.712;2022-07-10T01:15:01;5.93;;;1.90;;
59830;SDS011;45711;50.108;13.712;2022-07-10T01:17:27;3.40;;;1.85;;
59830;SDS011;45711;50.108;13.712;2022-07-10T01:19:56;9.20;;;1.83;;
59830;SDS011;45711;50.108;13.712;2022-07-10T01:22:23;5.47;;;1.70;;
59830;SDS011;45711;50.108;13.712;2022-07-10T01:24:49;7.85;;;1.58;;
59830;SDS011;45711;50.108;13.712;2022-07-10T01:27:15;8.55;;;1.42;;
59830;SDS011;45711;50.108;13.712;2022-07-10T01:29:40;7.53;;;1.63;;
59830;SDS011;45711;50.108;13.712;2022-07-10T01:32:07;6.60;;;1.50;;
59830;SDS011;45711;50.108;13.712;2022-07-10T01:34:32;8.90;;;1.55;;
59830;SDS011;45711;50.108;13.712;2022-07-10T01:36:58;9.93;;;2.03;;
59830;SDS011;45711;50.108;13.712;2022-07-10T01:39:25;5.70;;;1.50;;
59830;SDS011;45711;50.108;13.712;2022-07-10T01:41:50;9.05;;;2.00;;
59830;SDS011;45711;50.108;13.712;2022-07-10T01:44:16;6.60;;;1.55;;
59830;SDS011;45711;50.108;13.712;2022-07-10T01:46:45;5.05;;;1.70;;
59830;SDS011;45711;50.108;13.712;2022-07-10T01:49:11;8.20;;;1.70;;
59830;SDS011;45711;50.108;13.712;2022-07-10T01:51:37;6.03;;;1.40;;
59830;SDS011;45711;50.108;13.712;2022-07-10T01:54:03;9.57;;;1.70;;
59830;SDS011;45711;50.108;13.712;2022-07-10T01:56:30;6.30;;;1.45;;
59830;SDS011;45711;50.108;13.712;2022-07-10T01:58:56;9.13;;;1.75;;
59830;SDS011;45711;50.108;13.712;2022-07-10T02:01:22;3.00;;;1.30;;
59830;SDS011;45711;50.108;13.712;2022-07-10T02:03:47;7.30;;;1.33;;
59830;SDS011;45711;50.108;13.712;2022-07-10T02:06:32;5.38;;;1.20;;
59830;SDS011;45711;50.108;13.712;2022-07-10T02:08:57;3.85;;;1.50;;
59830;SDS011;45711;50.108;13.712;2022-07-10T02:11:23;3.20;;;1.10;;
59830;SDS011;45711;50.108;13.712;2022-07-10T02:13:50;6.15;;;1.30;;
59830;SDS011;45711;50.108;13.712;2022-07-10T02:16:16;7.50;;;1.50;;
59830;SDS011;45711;50.108;13.712;2022-07-10T02:18:41;6.43;;;1.20;;
59830;SDS011;45711;50.108;13.712;2022-07-10T02:21:07;7.45;;;1.45;;
59830;SDS011;45711;50.108;13.712;2022-07-10T02:23:33;6.97;;;1.45;;
59830;SDS011;45711;50.108;13.712;2022-07-10T02:25:59;5.70;;;1.50;;
59830;SDS011;45711;50.108;13.712;2022-07-10T02:28:24;13.73;;;1.20;;
59830;SDS011;45711;50.108;13.712;2022-07-10T02:30:51;5.18;;;1.40;;
59830;SDS011;45711;50.108;13.712;2022-07-10T02:33:17;6.70;;;1.20;;
59830;SDS011;45711;50.108;13.712;2022-07-10T02:35:42;6.20;;;1.05;;
59830;SDS011;45711;50.108;13.712;2022-07-10T02:38:08;5.35;;;1.42;;
59830;SDS011;45711;50.108;13.712;2022-07-10T02:40:34;6.90;;;0.98;;
59830;SDS011;45711;50.108;13.712;2022-07-10T02:42:59;6.97;;;1.00;;
59830;SDS011;45711;50.108;13.712;2022-07-10T02:45:25;4.68;;;1.45;;
59830;SDS011;45711;50.108;13.712;2022-07-10T02:47:52;5.03;;;1.02;;
59830;SDS011;45711;50.108;13.712;2022-07-10T02:50:17;4.18;;;0.90;;
59830;SDS011;45711;50.108;13.712;2022-07-10T02:52:43;3.30;;;1.00;;
59830;SDS011;45711;50.108;13.712;2022-07-10T02:55:09;6.95;;;1.10;;
59830;SDS011;45711;50.108;13.712;2022-07-10T02:57:34;6.38;;;1.00;;
59830;SDS011;45711;50.108;13.712;2022-07-10T03:00:00;9.23;;;1.10;;
59830;SDS011;45711;50.108;13.712;2022-07-10T03:02:26;9.02;;;0.95;;
59830;SDS011;45711;50.108;13.712;2022-07-10T03:04:53;7.70;;;1.13;;
59830;SDS011;45711;50.108;13.712;2022-07-10T03:07:18;12.93;;;1.20;;
59830;SDS011;45711;50.108;13.712;2022-07-10T03:09:44;8.15;;;1.20;;
59830;SDS011;45711;50.108;13.712;2022-07-10T03:12:10;6.13;;;0.85;;
59830;SDS011;45711;50.108;13.712;2022-07-10T03:14:35;3.17;;;0.73;;
59830;SDS011;45711;50.108;13.712;2022-07-10T03:17:01;4.60;;;1.00;;
59830;SDS011;45711;50.108;13.712;2022-07-10T03:19:26;5.30;;;1.08;;
59830;SDS011;45711;50.108;13.712;2022-07-10T03:21:53;8.98;;;1.65;;
59830;SDS011;45711;50.108;13.712;2022-07-10T03:24:19;8.48;;;0.90;;
59830;SDS011;45711;50.108;13.712;2022-07-10T03:26:45;6.68;;;0.85;;
59830;SDS011;45711;50.108;13.712;2022-07-10T03:29:10;5.72;;;1.00;;
59830;SDS011;45711;50.108;13.712;2022-07-10T03:31:36;6.10;;;0.80;;
59830;SDS011;45711;50.108;13.712;2022-07-10T03:34:01;5.82;;;0.90;;
59830;SDS011;45711;50.108;13.712;2022-07-10T03:36:27;7.05;;;1.13;;
59830;SDS011;45711;50.108;13.712;2022-07-10T03:38:54;4.60;;;1.10;;
59830;SDS011;45711;50.108;13.712;2022-07-10T03:41:19;6.35;;;0.93;;
59830;SDS011;45711;50.108;13.712;2022-07-10T03:43:45;5.03;;;1.00;;
59830;SDS011;45711;50.108;13.712;2022-07-10T03:46:10;5.90;;;0.98;;
59830;SDS011;45711;50.108;13.712;2022-07-10T03:48:36;5.43;;;1.00;;
59830;SDS011;45711;50.108;13.712;2022-07-10T03:51:03;3.65;;;1.48;;
59830;SDS011;45711;50.108;13.712;2022-07-10T03:53:29;5.95;;;1.45;;
59830;SDS011;45711;50.108;13.712;2022-07-10T03:55:55;6.25;;;1.00;;
59830;SDS011;45711;50.108;13.712;2022-07-10T03:58:21;5.82;;;0.88;;
59830;SDS011;45711;50.108;13.712;2022-07-10T04:00:47;12.80;;;1.20;;
59830;SDS011;45711;50.108;13.712;2022-07-10T04:03:12;7.75;;;1.48;;
59830;SDS011;45711;50.108;13.712;2022-07-10T04:05:38;7.88;;;1.23;;
59830;SDS011;45711;50.108;13.712;2022-07-10T04:08:04;5.28;;;1.15;;
59830;SDS011;45711;50.108;13.712;2022-07-10T04:10:33;3.50;;;1.17;;
59830;SDS011;45711;50.108;13.712;2022-07-10T04:13:00;10.63;;;1.65;;
59830;SDS011;45711;50.108;13.712;2022-07-10T04:15:26;6.50;;;1.55;;
59830;SDS011;45711;50.108;13.712;2022-07-10T04:17:52;7.50;;;1.30;;
59830;SDS011;45711;50.108;13.712;2022-07-10T04:20:17;6.07;;;1.30;;
59830;SDS011;45711;50.108;13.712;2022-07-10T04:22:44;4.30;;;1.05;;
59830;SDS011;45711;50.108;13.712;2022-07-10T04:25:10;5.32;;;1.23;;
59830;SDS011;45711;50.108;13.712;2022-07-10T04:27:36;6.65;;;1.27;;
59830;SDS011;45711;50.108;13.712;2022-07-10T04:30:04;6.15;;;1.77;;
59830;SDS011;45711;50.108;13.712;2022-07-10T04:32:31;10.13;;;1.48;;
59830;SDS011;45711;50.108;13.712;2022-07-10T04:34:57;5.60;;;1.40;;
59830;SDS011;45711;50.108;13.712;2022-07-10T04:37:23;6.13;;;1.30;;
59830;SDS011;45711;50.108;13.712;2022-07-10T04:39:49;8.32;;;1.33;;
59830;SDS011;45711;50.108;13.712;2022-07-10T04:42:14;5.50;;;1.05;;
59830;SDS011;45711;50.108;13.712;2022-07-10T04:44:40;3.97;;;1.10;;
59830;SDS011;45711;50.108;13.712;2022-07-10T04:47:08;3.78;;;1.30;;
59830;SDS011;45711;50.108;13.712;2022-07-10T04:49:33;6.35;;;1.45;;
59830;SDS011;45711;50.108;13.712;2022-07-10T04:51:59;9.57;;;1.67;;
59830;SDS011;45711;50.108;13.712;2022-07-10T04:54:26;5.57;;;1.00;;
59830;SDS011;45711;50.108;13.712;2022-07-10T04:56:51;3.78;;;0.93;;
59830;SDS011;45711;50.108;13.712;2022-07-10T04:59:17;3.78;;;1.35;;
59830;SDS011;45711;50.108;13.712;2022-07-10T05:01:43;5.35;;;1.00;;
59830;SDS011;45711;50.108;13.712;2022-07-10T05:04:10;4.10;;;0.90;;
59830;SDS011;45711;50.108;13.712;2022-07-10T05:06:36;5.32;;;1.00;;
59830;SDS011;45711;50.108;13.712;2022-07-10T05:09:02;12.02;;;0.90;;
59830;SDS011;45711;50.108;13.712;2022-07-10T05:11:28;4.68;;;0.90;;
59830;SDS011;45711;50.108;13.712;2022-07-10T05:13:53;2.65;;;0.75;;
59830;SDS011;45711;50.108;13.712;2022-07-10T05:16:19;6.68;;;1.15;;
59830;SDS011;45711;50.108;13.712;2022-07-10T05:18:44;7.55;;;1.13;;
59830;SDS011;45711;50.108;13.712;2022-07-10T05:21:12;8.15;;;1.13;;
59830;SDS011;45711;50.108;13.712;2022-07-10T05:23:38;4.32;;;1.00;;
59830;SDS011;45711;50.108;13.712;2022-07-10T05:26:04;10.05;;;1.40;;
59830;SDS011;45711;50.108;13.712;2022-07-10T05:28:30;6.15;;;0.85;;
59830;SDS011;45711;50.108;13.712;2022-07-10T05:30:55;5.07;;;1.10;;
59830;SDS011;45711;50.108;13.712;2022-07-10T05:33:21;3.47;;;0.70;;
59830;SDS011;45711;50.108;13.712;2022-07-10T05:35:47;6.63;;;0.77;;
59830;SDS011;45711;50.108;13.712;2022-07-10T05:38:14;5.35;;;0.88;;
59830;SDS011;45711;50.108;13.712;2022-07-10T05:40:40;5.82;;;1.15;;
59830;SDS011;45711;50.108;13.712;2022-07-10T05:43:05;3.95;;;0.90;;
59830;SDS011;45711;50.108;13.712;2022-07-10T05:45:31;5.03;;;0.90;;
59830;SDS011;45711;50.108;13.712;2022-07-10T05:47:56;2.88;;;0.90;;
59830;SDS011;45711;50.108;13.712;2022-07-10T05:50:23;3.30;;;0.90;;
59830;SDS011;45711;50.108;13.712;2022-07-10T05:52:49;10.95;;;1.20;;
59830;SDS011;45711;50.108;13.712;2022-07-10T05:55:16;4.45;;;0.85;;
59830;SDS011;45711;50.108;13.712;2022-07-10T05:57:41;2.95;;;1.25;;
59830;SDS011;45711;50.108;13.712;2022-07-10T06:00:07;9.07;;;1.10;;
59830;SDS011;45711;50.108;13.712;2022-07-10T06:02:36;5.30;;;1.20;;
59830;SDS011;45711;50.108;13.712;2022-07-10T06:05:02;3.15;;;1.05;;
59830;SDS011;45711;50.108;13.712;2022-07-10T06:07:30;4.35;;;1.20;;
59830;SDS011;45711;50.108;13.712;2022-07-10T06:09:56;3.58;;;1.10;;
59830;SDS011;45711;50.108;13.712;2022-07-10T06:12:23;2.85;;;0.90;;
59830;SDS011;45711;50.108;13.712;2022-07-10T06:14:49;7.53;;;1.48;;
59830;SDS011;45711;50.108;13.712;2022-07-10T06:17:15;14.35;;;1.80;;
59830;SDS011;45711;50.108;13.712;2022-07-10T06:19:40;3.47;;;1.17;;
59830;SDS011;45711;50.108;13.712;2022-07-10T06:22:06;3.25;;;1.10;;
59830;SDS011;45711;50.108;13.712;2022-07-10T06:27:15;3.33;;;1.00;;
59830;SDS011;45711;50.108;13.712;2022-07-10T06:29:45;5.80;;;1.30;;
59830;SDS011;45711;50.108;13.712;2022-07-10T06:32:11;10.50;;;1.10;;
59830;SDS011;45711;50.108;13.712;2022-07-10T06:34:36;3.92;;;1.02;;
59830;SDS011;45711;50.108;13.712;2022-07-10T06:37:05;4.85;;;1.20;;
59830;SDS011;45711;50.108;13.712;2022-07-10T06:39:32;7.10;;;1.15;;
59830;SDS011;45711;50.108;13.712;2022-07-10T06:42:00;3.88;;;0.70;;
59830;SDS011;45711;50.108;13.712;2022-07-10T06:44:26;3.55;;;1.10;;
59830;SDS011;45711;50.108;13.712;2022-07-10T06:46:57;4.50;;;1.65;;
59830;SDS011;45711;50.108;13.712;2022-07-10T06:49:44;6.78;;;1.63;;
59830;SDS011;45711;50.108;13.712;2022-07-10T06:52:19;3.25;;;1.55;;
59830;SDS011;45711;50.108;13.712;2022-07-10T06:54:45;3.85;;;1.20;;
59830;SDS011;45711;50.108;13.712;2022-07-10T06:57:11;8.00;;;1.25;;
59830;SDS011;45711;50.108;13.712;2022-07-10T06:59:37;4.65;;;1.10;;
59830;SDS011;45711;50.108;13.712;2022-07-10T07:02:07;6.55;;;1.20;;
59830;SDS011;45711;50.108;13.712;2022-07-10T07:04:33;5.97;;;1.10;;
59830;SDS011;45711;50.108;13.712;2022-07-10T07:06:58;7.38;;;1.17;;
59830;SDS011;45711;50.108;13.712;2022-07-10T07:09:24;4.03;;;1.10;;
59830;SDS011;45711;50.108;13.712;2022-07-10T07:11:50;3.90;;;1.38;;
59830;SDS011;45711;50.108;13.712;2022-07-10T07:14:18;4.68;;;1.30;;
59830;SDS011;45711;50.108;13.712;2022-07-10T07:16:44;4.38;;;1.02;;
59830;SDS011;45711;50.108;13.712;2022-07-10T07:19:24;5.85;;;1.00;;
59830;SDS011;45711;50.108;13.712;2022-07-10T07:22:08;2.15;;;1.10;;
59830;SDS011;45711;50.108;13.712;2022-07-10T07:27:17;6.97;;;0.90;;
59830;SDS011;45711;50.108;13.712;2022-07-10T07:29:43;5.15;;;1.85;;
59830;SDS011;45711;50.108;13.712;2022-07-10T07:32:09;2.17;;;0.90;;
59830;SDS011;45711;50.108;13.712;2022-07-10T07:34:36;3.72;;;0.95;;
59830;SDS011;45711;50.108;13.712;2022-07-10T07:37:02;7.45;;;1.13;;
59830;SDS011;45711;50.108;13.712;2022-07-10T07:39:28;30.05;;;1.25;;
59830;SDS011;45711;50.108;13.712;2022-07-10T07:41:57;3.95;;;0.95;;
59830;SDS011;45711;50.108;13.712;2022-07-10T07:44:22;2.20;;;0.75;;
59830;SDS011;45711;50.108;13.712;2022-07-10T07:46:48;5.07;;;1.20;;
59830;SDS011;45711;50.108;13.712;2022-07-10T07:49:17;3.67;;;0.98;;
59830;SDS011;45711;50.108;13.712;2022-07-10T07:51:44;3.65;;;0.70;;
59830;SDS011;45711;50.108;13.712;2022-07-10T07:54:10;3.78;;;0.90;;
59830;SDS011;45711;50.108;13.712;2022-07-10T07:56:36;4.10;;;1.17;;
59830;SDS011;45711;50.108;13.712;2022-07-10T07:59:02;6.95;;;0.98;;
59830;SDS011;45711;50.108;13.712;2022-07-10T08:01:28;3.42;;;1.00;;
59830;SDS011;45711;50.108;13.712;2022-07-10T08:03:59;3.00;;;0.73;;
59830;SDS011;45711;50.108;13.712;2022-07-10T08:06:27;3.78;;;0.68;;
59830;SDS011;45711;50.108;13.712;2022-07-10T08:08:54;2.20;;;0.77;;
59830;SDS011;45711;50.108;13.712;2022-07-10T08:11:26;2.72;;;0.88;;
59830;SDS011;45711;50.108;13.712;2022-07-10T08:14:29;2.58;;;0.60;;
59830;SDS011;45711;50.108;13.712;2022-07-10T08:19:39;4.93;;;0.87;;
59830;SDS011;45711;50.108;13.712;2022-07-10T08:22:05;2.88;;;0.60;;
59830;SDS011;45711;50.108;13.712;2022-07-10T08:24:41;4.40;;;0.63;;
59830;SDS011;45711;50.108;13.712;2022-07-10T08:27:07;2.55;;;0.52;;
59830;SDS011;45711;50.108;13.712;2022-07-10T08:29:33;0.80;;;0.40;;
59830;SDS011;45711;50.108;13.712;2022-07-10T08:32:02;1.90;;;0.57;;
59830;SDS011;45711;50.108;13.712;2022-07-10T08:34:30;7.75;;;0.73;;
59830;SDS011;45711;50.108;13.712;2022-07-10T08:36:58;1.85;;;0.60;;
59830;SDS011;45711;50.108;13.712;2022-07-10T08:39:24;1.67;;;0.60;;
59830;SDS011;45711;50.108;13.712;2022-07-10T08:41:52;2.53;;;0.60;;
59830;SDS011;45711;50.108;13.712;2022-07-10T08:44:18;1.33;;;0.50;;
59830;SDS011;45711;50.108;13.712;2022-07-10T08:46:46;2.85;;;1.05;;
59830;SDS011;45711;50.108;13.712;2022-07-10T08:49:12;4.82;;;0.63;;
59830;SDS011;45711;50.108;13.712;2022-07-10T08:51:40;2.70;;;0.80;;
59830;SDS011;45711;50.108;13.712;2022-07-10T08:54:10;2.40;;;0.70;;
59830;SDS011;45711;50.108;13.712;2022-07-10T08:56:40;1.92;;;0.43;;
59830;SDS011;45711;50.108;13.712;2022-07-10T08:59:08;4.85;;;0.70;;
59830;SDS011;45711;50.108;13.712;2022-07-10T09:01:34;3.28;;;0.60;;
59830;SDS011;45711;50.108;13.712;2022-07-10T09:04:00;2.33;;;0.65;;
59830;SDS011;45711;50.108;13.712;2022-07-10T09:06:27;5.03;;;0.68;;
59830;SDS011;45711;50.108;13.712;2022-07-10T09:09:01;6.78;;;0.63;;
59830;SDS011;45711;50.108;13.712;2022-07-10T09:11:28;1.35;;;0.50;;
59830;SDS011;45711;50.108;13.712;2022-07-10T09:13:55;4.20;;;0.70;;
59830;SDS011;45711;50.108;13.712;2022-07-10T09:16:32;3.20;;;0.50;;
59830;SDS011;45711;50.108;13.712;2022-07-10T09:19:14;1.77;;;0.43;;
59830;SDS011;45711;50.108;13.712;2022-07-10T09:21:42;3.08;;;0.50;;
59830;SDS011;45711;50.108;13.712;2022-07-10T09:24:08;2.05;;;0.70;;
59830;SDS011;45711;50.108;13.712;2022-07-10T09:26:35;4.03;;;0.45;;
59830;SDS011;45711;50.108;13.712;2022-07-10T09:29:09;2.00;;;0.73;;
59830;SDS011;45711;50.108;13.712;2022-07-10T09:31:50;3.13;;;0.45;;
59830;SDS011;45711;50.108;13.712;2022-07-10T09:34:34;1.35;;;0.40;;
59830;SDS011;45711;50.108;13.712;2022-07-10T09:39:56;4.07;;;0.50;;
59830;SDS011;45711;50.108;13.712;2022-07-10T09:42:34;1.25;;;0.40;;
59830;SDS011;45711;50.108;13.712;2022-07-10T09:47:55;2.05;;;0.43;;
59830;SDS011;45711;50.108;13.712;2022-07-10T09:50:29;2.08;;;0.40;;
59830;SDS011;45711;50.108;13.712;2022-07-10T09:53:06;2.55;;;0.47;;
59830;SDS011;45711;50.108;13.712;2022-07-10T09:58:04;0.98;;;0.30;;
59830;SDS011;45711;50.108;13.712;2022-07-10T10:00:31;1.70;;;0.43;;
59830;SDS011;45711;50.108;13.712;2022-07-10T10:03:00;1.00;;;0.25;;
59830;SDS011;45711;50.108;13.712;2022-07-10T10:05:28;1.80;;;0.30;;
59830;SDS011;45711;50.108;13.712;2022-07-10T10:08:06;0.70;;;0.40;;
59830;SDS011;45711;50.108;13.712;2022-07-10T10:10:40;1.73;;;0.40;;
59830;SDS011;45711;50.108;13.712;2022-07-10T10:13:10;0.40;;;0.35;;
59830;SDS011;45711;50.108;13.712;2022-07-10T10:15:37;3.15;;;0.40;;
59830;SDS011;45711;50.108;13.712;2022-07-10T10:18:04;4.15;;;0.40;;
59830;SDS011;45711;50.108;13.712;2022-07-10T10:20:30;3.67;;;0.43;;
59830;SDS011;45711;50.108;13.712;2022-07-10T10:23:07;1.58;;;0.47;;
59830;SDS011;45711;50.108;13.712;2022-07-10T10:25:34;4.07;;;0.52;;
59830;SDS011;45711;50.108;13.712;2022-07-10T10:28:03;0.57;;;0.30;;
59830;SDS011;45711;50.108;13.712;2022-07-10T10:30:32;5.20;;;0.70;;
59830;SDS011;45711;50.108;13.712;2022-07-10T10:33:01;1.65;;;0.50;;
59830;SDS011;45711;50.108;13.712;2022-07-10T10:35:45;2.65;;;0.50;;
59830;SDS011;45711;50.108;13.712;2022-07-10T10:38:12;0.77;;;0.40;;
59830;SDS011;45711;50.108;13.712;2022-07-10T10:40:38;2.15;;;0.47;;
59830;SDS011;45711;50.108;13.712;2022-07-10T10:43:16;0.75;;;0.45;;
59830;SDS011;45711;50.108;13.712;2022-07-10T10:45:43;0.35;;;0.30;;
59830;SDS011;45711;50.108;13.712;2022-07-10T10:48:09;2.28;;;0.32;;
59830;SDS011;45711;50.108;13.712;2022-07-10T10:50:37;3.60;;;0.38;;
59830;SDS011;45711;50.108;13.712;2022-07-10T10:53:14;0.85;;;0.30;;
59830;SDS011;45711;50.108;13.712;2022-07-10T10:55:41;1.55;;;0.52;;
59830;SDS011;45711;50.108;13.712;2022-07-10T10:58:38;1.85;;;0.47;;
59830;SDS011;45711;50.108;13.712;2022-07-10T11:06:40;1.52;;;0.30;;
59830;SDS011;45711;50.108;13.712;2022-07-10T11:12:22;1.27;;;0.43;;
59830;SDS011;45711;50.108;13.712;2022-07-10T11:14:51;3.53;;;0.50;;
59830;SDS011;45711;50.108;13.712;2022-07-10T11:17:35;1.63;;;0.55;;
59830;SDS011;45711;50.108;13.712;2022-07-10T11:20:14;1.48;;;0.47;;
59830;SDS011;45711;50.108;13.712;2022-07-10T11:22:56;2.35;;;0.85;;
59830;SDS011;45711;50.108;13.712;2022-07-10T11:25:39;3.22;;;0.30;;
59830;SDS011;45711;50.108;13.712;2022-07-10T11:28:25;2.65;;;0.70;;
59830;SDS011;45711;50.108;13.712;2022-07-10T11:31:00;1.48;;;0.90;;
59830;SDS011;45711;50.108;13.712;2022-07-10T11:33:26;2.40;;;0.60;;
59830;SDS011;45711;50.108;13.712;2022-07-10T11:36:16;1.38;;;0.68;;
59830;SDS011;45711;50.108;13.712;2022-07-10T11:38:58;2.83;;;0.50;;
59830;SDS011;45711;50.108;13.712;2022-07-10T11:41:43;8.05;;;1.10;;
59830;SDS011;45711;50.108;13.712;2022-07-10T11:44:15;2.55;;;0.50;;
59830;SDS011;45711;50.108;13.712;2022-07-10T11:46:51;1.20;;;0.57;;
59830;SDS011;45711;50.108;13.712;2022-07-10T11:49:22;1.80;;;0.40;;
59830;SDS011;45711;50.108;13.712;2022-07-10T11:51:50;2.38;;;0.40;;
59830;SDS011;45711;50.108;13.712;2022-07-10T11:54:19;0.55;;;0.20;;
59830;SDS011;45711;50.108;13.712;2022-07-10T11:57:03;1.45;;;0.47;;
59830;SDS011;45711;50.108;13.712;2022-07-10T11:59:36;0.88;;;0.40;;
59830;SDS011;45711;50.108;13.712;2022-07-10T12:02:06;0.95;;;0.30;;
59830;SDS011;45711;50.108;13.712;2022-07-10T12:04:35;3.70;;;0.30;;
59830;SDS011;45711;50.108;13.712;2022-07-10T12:07:12;2.13;;;0.57;;
59830;SDS011;45711;50.108;13.712;2022-07-10T12:09:45;1.63;;;0.40;;
59830;SDS011;45711;50.108;13.712;2022-07-10T12:12:29;0.70;;;0.40;;
59830;SDS011;45711;50.108;13.712;2022-07-10T12:14:59;1.15;;;0.50;;
59830;SDS011;45711;50.108;13.712;2022-07-10T12:17:27;2.17;;;0.45;;
59830;SDS011;45711;50.108;13.712;2022-07-10T12:20:03;1.60;;;0.40;;
59830;SDS011;45711;50.108;13.712;2022-07-10T12:22:29;1.98;;;0.35;;
59830;SDS011;45711;50.108;13.712;2022-07-10T12:24:55;2.60;;;0.40;;
59830;SDS011;45711;50.108;13.712;2022-07-10T12:30:05;2.40;;;0.40;;
59830;SDS011;45711;50.108;13.712;2022-07-10T12:32:31;3.78;;;0.60;;
59830;SDS011;45711;50.108;13.712;2022-07-10T12:34:58;1.35;;;0.40;;
59830;SDS011;45711;50.108;13.712;2022-07-10T12:37:24;2.30;;;0.40;;
59830;SDS011;45711;50.108;13.712;2022-07-10T12:39:50;2.00;;;0.30;;
59830;SDS011;45711;50.108;13.712;2022-07-10T12:42:25;1.80;;;0.40;;
59830;SDS011;45711;50.108;13.712;2022-07-10T12:48:22;1.05;;;0.35;;
59830;SDS011;45711;50.108;13.712;2022-07-10T12:50:48;8.48;;;0.60;;
59830;SDS011;45711;50.108;13.712;2022-07-10T12:53:14;6.80;;;0.70;;
59830;SDS011;45711;50.108;13.712;2022-07-10T12:55:40;2.58;;;0.43;;
59830;SDS011;45711;50.108;13.712;2022-07-10T12:58:07;2.50;;;0.50;;
59830;SDS011;45711;50.108;13.712;2022-07-10T13:00:43;3.45;;;0.52;;
59830;SDS011;45711;50.108;13.712;2022-07-10T13:03:11;7.25;;;0.50;;
59830;SDS011;45711;50.108;13.712;2022-07-10T13:05:44;5.32;;;0.60;;
59830;SDS011;45711;50.108;13.712;2022-07-10T13:08:10;4.80;;;0.70;;
59830;SDS011;45711;50.108;13.712;2022-07-10T13:10:38;1.30;;;0.60;;
59830;SDS011;45711;50.108;13.712;2022-07-10T13:13:04;9.10;;;0.70;;
59830;SDS011;45711;50.108;13.712;2022-07-10T13:15:30;3.60;;;0.60;;
59830;SDS011;45711;50.108;13.712;2022-07-10T13:17:56;2.92;;;0.50;;
59830;SDS011;45711;50.108;13.712;2022-07-10T13:20:22;3.47;;;0.43;;
59830;SDS011;45711;50.108;13.712;2022-07-10T13:22:49;3.13;;;0.63;;
59830;SDS011;45711;50.108;13.712;2022-07-10T13:25:15;4.18;;;0.82;;
59830;SDS011;45711;50.108;13.712;2022-07-10T13:27:40;0.88;;;0.45;;
59830;SDS011;45711;50.108;13.712;2022-07-10T13:30:07;2.60;;;0.60;;
59830;SDS011;45711;50.108;13.712;2022-07-10T13:32:33;2.03;;;0.60;;
59830;SDS011;45711;50.108;13.712;2022-07-10T13:34:59;2.67;;;0.57;;
59830;SDS011;45711;50.108;13.712;2022-07-10T13:37:25;3.53;;;0.75;;
59830;SDS011;45711;50.108;13.712;2022-07-10T13:39:52;1.33;;;0.50;;
59830;SDS011;45711;50.108;13.712;2022-07-10T13:42:19;1.67;;;0.70;;
59830;SDS011;45711;50.108;13.712;2022-07-10T13:44:45;1.85;;;0.60;;
59830;SDS011;45711;50.108;13.712;2022-07-10T13:47:11;1.92;;;0.65;;
59830;SDS011;45711;50.108;13.712;2022-07-10T13:49:37;2.40;;;0.70;;
59830;SDS011;45711;50.108;13.712;2022-07-10T13:52:02;8.70;;;0.82;;
59830;SDS011;45711;50.108;13.712;2022-07-10T13:54:29;3.90;;;0.75;;
59830;SDS011;45711;50.108;13.712;2022-07-10T13:56:56;5.82;;;0.80;;
59830;SDS011;45711;50.108;13.712;2022-07-10T13:59:21;2.15;;;0.60;;
59830;SDS011;45711;50.108;13.712;2022-07-10T14:01:48;1.63;;;0.68;;
59830;SDS011;45711;50.108;13.712;2022-07-10T14:04:13;2.53;;;0.82;;
59830;SDS011;45711;50.108;13.712;2022-07-10T14:06:39;5.20;;;1.05;;
59830;SDS011;45711;50.108;13.712;2022-07-10T14:09:04;2.60;;;0.85;;
59830;SDS011;45711;50.108;13.712;2022-07-10T14:11:35;4.00;;;0.85;;
59830;SDS011;45711;50.108;13.712;2022-07-10T14:14:02;7.03;;;0.90;;
59830;SDS011;45711;50.108;13.712;2022-07-10T14:16:28;2.88;;;0.60;;
59830;SDS011;45711;50.108;13.712;2022-07-10T14:18:53;3.05;;;0.73;;
59830;SDS011;45711;50.108;13.712;2022-07-10T14:21:19;3.38;;;1.00;;
59830;SDS011;45711;50.108;13.712;2022-07-10T14:23:45;2.90;;;0.50;;
59830;SDS011;45711;50.108;13.712;2022-07-10T14:26:11;7.35;;;0.80;;
59830;SDS011;45711;50.108;13.712;2022-07-10T14:28:37;3.20;;;0.63;;
59830;SDS011;45711;50.108;13.712;2022-07-10T14:31:05;4.63;;;0.80;;
59830;SDS011;45711;50.108;13.712;2022-07-10T14:33:31;2.92;;;0.70;;
59830;SDS011;45711;50.108;13.712;2022-07-10T14:35:58;4.60;;;0.80;;
59830;SDS011;45711;50.108;13.712;2022-07-10T14:38:24;3.60;;;0.80;;
59830;SDS011;45711;50.108;13.712;2022-07-10T14:40:50;10.50;;;1.05;;
59830;SDS011;45711;50.108;13.712;2022-07-10T14:43:23;4.70;;;0.80;;
59830;SDS011;45711;50.108;13.712;2022-07-10T14:45:49;3.85;;;1.20;;
59830;SDS011;45711;50.108;13.712;2022-07-10T14:48:17;3.30;;;0.90;;
59830;SDS011;45711;50.108;13.712;2022-07-10T14:50:42;3.17;;;1.00;;
59830;SDS011;45711;50.108;13.712;2022-07-10T14:53:08;3.05;;;0.82;;
59830;SDS011;45711;50.108;13.712;2022-07-10T14:55:35;2.95;;;0.90;;
59830;SDS011;45711;50.108;13.712;2022-07-10T14:58:01;4.82;;;0.85;;
59830;SDS011;45711;50.108;13.712;2022-07-10T15:00:27;4.65;;;0.82;;
59830;SDS011;45711;50.108;13.712;2022-07-10T15:02:53;2.72;;;0.73;;
59830;SDS011;45711;50.108;13.712;2022-07-10T15:05:20;5.93;;;0.90;;
59830;SDS011;45711;50.108;13.712;2022-07-10T15:07:46;2.25;;;0.75;;
59830;SDS011;45711;50.108;13.712;2022-07-10T15:10:13;8.52;;;1.05;;